Inicio METAR Ruta Wind Satelite

Informe Meteorológico

Fecha: 2020/09/22 22:09:33 Local
2020.09.23 03:09 UTC


Estado: VIGENTE
Operación:VFR
Cali / Alfonso Bonilla Aragon, Colombia (SKCL) 03-33N 076-23W 969M
2020.09.23 0300 UTC
Wind: from the N (010 degrees) at 8 MPH (7 KT):0
Visibility: greater than 7 mile(s):0
Sky conditions: mostly clear
Temperature: 73 F (23 C)
Dew Point: 66 F (19 C)
Relative Humidity: 78%
Pressure (altimeter): 29.99 in. Hg (1015 hPa)
ob: SKCL 230300Z 01007KT 9999 FEW030 23/19 A2999 NOSIG
cycle: 3

SKCL 230200Z 36008KT 9999 FEW030 23/19 A2997 NOSIG
SKCL 230100Z 36006KT 9999 FEW030 23/19 A2994 NOSIG
SKCL 230000Z 33008KT 9999 FEW030 SCT300 25/19 A2991 NOSIG
SKCL 222300Z 32009KT 9999 FEW030 SCT300 27/19 A2987
SKCL 222200Z 31014KT 9999 FEW030 SCT300 29/19 A2985 NOSIG

2020/09/22 18:35
TAF SKCL 221630Z 2218/2318 32008KT 9999 SCT020 SCT120
TEMPO 2222/2224 9000 VCSH SCT018TCU
BECMG 2300/2302 VRB03KT FEW017 BKN100
TEMPO 2311/2314 8000 VCFG TX32/2219Z TN19/2311Z